Time;durP1;ratioP1;P1;durP2;ratioP2;P2;SDS_P1;SDS_P2;PMS_P1;PMS_P2;Temp;Humidity;BMP_temperature;BMP_pressure;BME280_temperature;BME280_humidity;BME280_pressure;Samples;Min_cycle;Max_cycle;Signal;HPM_P1;HPM_P2
2023/12/31 00:02:23;;;;;;;2.75;1.80;;;;;;;7.16;99.36;100668.59;4968112;28;20199;-66
2023/12/31 00:04:53;;;;;;;2.50;1.63;;;;;;;7.19;99.14;100670.91;4968123;28;20266;-66
2023/12/31 00:07:26;;;;;;;3.45;2.15;;;;;;;7.29;97.85;100664.22;4972511;28;20302;-66
2023/12/31 00:09:57;;;;;;;1.52;1.42;;;;;;;7.29;98.08;100666.06;4969642;28;20238;-67
2023/12/31 00:12:27;;;;;;;2.33;1.52;;;;;;;7.31;99.01;100667.53;4965049;28;20230;-66
2023/12/31 00:14:57;;;;;;;3.88;1.73;;;;;;;7.23;99.16;100664.13;4960485;28;20251;-66
2023/12/31 00:17:28;;;;;;;5.25;1.38;;;;;;;7.25;99.79;100654.84;4960913;28;20225;-65
2023/12/31 00:19:57;;;;;;;2.92;1.88;;;;;;;7.40;98.58;100655.69;4975019;28;20535;-64
2023/12/31 00:22:29;;;;;;;5.30;1.73;;;;;;;7.40;98.54;100661.06;4959443;28;20192;-68
2023/12/31 00:24:59;;;;;;;2.78;1.60;;;;;;;7.48;97.99;100646.66;4972658;28;20223;-66
2023/12/31 00:27:30;;;;;;;4.68;1.35;;;;;;;7.27;98.79;100650.09;4970264;28;20303;-66
2023/12/31 00:29:59;;;;;;;1.67;0.93;;;;;;;7.24;99.30;100650.47;4969049;28;20303;-65
2023/12/31 00:32:29;;;;;;;3.15;2.00;;;;;;;7.28;99.60;100646.38;4959011;28;20195;-67
2023/12/31 00:34:59;;;;;;;5.75;1.30;;;;;;;7.41;99.18;100643.84;4962865;28;20216;-66
2023/12/31 00:37:33;;;;;;;2.50;1.02;;;;;;;7.26;98.77;100645.72;4959943;28;20628;-65
2023/12/31 00:40:04;;;;;;;4.22;1.67;;;;;;;7.18;100.00;100648.53;4959846;28;20780;-66
2023/12/31 00:42:35;;;;;;;2.00;1.33;;;;;;;7.24;100.00;100639.72;4964832;28;20196;-66
2023/12/31 00:45:06;;;;;;;3.10;1.55;;;;;;;7.33;99.69;100633.19;4972462;28;20311;-64
2023/12/31 00:47:37;;;;;;;5.03;2.17;;;;;;;7.47;98.73;100633.34;4965302;28;20664;-66
2023/12/31 00:50:09;;;;;;;4.47;2.15;;;;;;;7.43;98.87;100646.38;4965507;28;20203;-65
2023/12/31 00:52:41;;;;;;;5.75;1.63;;;;;;;7.27;99.71;100633.94;4981984;28;20200;-67
2023/12/31 00:55:11;;;;;;;2.20;1.55;;;;;;;7.35;99.75;100633.88;4963160;28;20589;-65
2023/12/31 00:57:41;;;;;;;5.80;1.92;;;;;;;7.32;99.86;100634.22;4972053;28;20192;-66
2023/12/31 01:00:12;;;;;;;4.60;2.72;;;;;;;7.39;99.22;100632.47;4973051;28;20282;-64
2023/12/31 01:02:43;;;;;;;7.78;1.58;;;;;;;7.32;99.29;100611.84;4964450;28;20206;-66
2023/12/31 01:05:13;;;;;;;1.80;1.25;;;;;;;7.07;100.00;100616.69;4970134;28;20278;-65
2023/12/31 01:07:45;;;;;;;2.42;1.42;;;;;;;6.78;100.00;100622.06;4970624;28;20207;-66
2023/12/31 01:10:16;;;;;;;3.67;2.47;;;;;;;6.66;100.00;100624.38;4974108;28;20258;-66
2023/12/31 01:12:47;;;;;;;1.27;0.77;;;;;;;6.49;100.00;100622.84;4964453;28;20639;-65
2023/12/31 01:15:17;;;;;;;3.17;1.75;;;;;;;6.34;100.00;100616.63;4964985;28;20226;-64
2023/12/31 01:17:47;;;;;;;2.08;1.15;;;;;;;6.20;100.00;100618.22;4963089;28;20195;-65
2023/12/31 01:20:18;;;;;;;1.77;1.05;;;;;;;6.18;100.00;100612.22;4973258;28;20190;-64
2023/12/31 01:22:50;;;;;;;4.25;1.92;;;;;;;6.04;100.00;100608.47;4971813;28;20195;-66
2023/12/31 01:25:21;;;;;;;1.98;1.88;;;;;;;5.86;100.00;100599.00;4963323;28;20223;-65
2023/12/31 01:27:53;;;;;;;2.20;1.73;;;;;;;5.81;100.00;100606.78;4964797;28;20216;-65
2023/12/31 01:30:24;;;;;;;4.20;2.38;;;;;;;5.66;100.00;100604.03;4972329;28;20689;-66
2023/12/31 01:32:56;;;;;;;5.63;2.92;;;;;;;5.72;100.00;100605.13;4961104;28;20196;-66
2023/12/31 01:35:26;;;;;;;5.80;5.15;;;;;;;5.63;100.00;100599.81;4967666;28;20216;-65
2023/12/31 01:37:57;;;;;;;11.30;6.82;;;;;;;5.58;100.00;100596.84;4967139;28;20731;-65
2023/12/31 01:40:27;;;;;;;15.88;4.88;;;;;;;5.45;100.00;100596.59;4971707;28;20280;-65
2023/12/31 01:42:58;;;;;;;11.55;4.93;;;;;;;5.33;100.00;100587.25;4964505;28;20286;-65
2023/12/31 01:45:29;;;;;;;7.82;4.28;;;;;;;5.42;100.00;100596.91;4959678;28;20593;-66
2023/12/31 01:48:00;;;;;;;3.00;2.58;;;;;;;5.41;100.00;100589.06;4972284;28;20191;-65
2023/12/31 01:50:30;;;;;;;4.35;2.17;;;;;;;5.35;100.00;100598.66;4962528;28;20200;-67
2023/12/31 01:53:02;;;;;;;2.70;2.40;;;;;;;5.34;100.00;100594.28;4970438;28;20211;-65
2023/12/31 01:55:33;;;;;;;3.45;1.60;;;;;;;5.34;100.00;100596.97;4969853;28;20566;-65
2023/12/31 01:58:04;;;;;;;2.63;2.42;;;;;;;5.39;100.00;100585.72;4961987;28;20259;-65
2023/12/31 02:00:35;;;;;;;4.72;1.63;;;;;;;5.51;100.00;100585.16;4967835;28;20207;-66
2023/12/31 02:03:06;;;;;;;2.00;1.33;;;;;;;5.43;100.00;100576.28;4965451;28;20199;-66
2023/12/31 02:05:37;;;;;;;1.65;1.15;;;;;;;5.36;100.00;100580.72;4964061;28;20227;-65
2023/12/31 02:08:11;;;;;;;2.10;1.08;;;;;;;5.38;100.00;100568.78;4965439;28;20271;-64
2023/12/31 02:10:44;;;;;;;2.80;1.50;;;;;;;5.38;100.00;100567.94;4970144;28;20203;-66
2023/12/31 02:13:15;;;;;;;1.92;1.13;;;;;;;5.36;100.00;100568.13;4970164;28;20207;-66
2023/12/31 02:15:47;;;;;;;1.30;0.98;;;;;;;5.43;100.00;100571.75;4967132;28;20250;-66
2023/12/31 02:18:20;;;;;;;2.65;1.70;;;;;;;5.33;100.00;100576.50;4990028;28;20287;-66
2023/12/31 02:20:50;;;;;;;1.48;1.30;;;;;;;5.37;100.00;100563.59;4957027;28;20716;-67
2023/12/31 02:23:22;;;;;;;2.08;1.85;;;;;;;5.36;100.00;100565.44;4966128;28;20710;-66
2023/12/31 02:26:06;;;;;;;5.22;2.05;;;;;;;5.43;100.00;100566.38;4958167;28;20636;-65
2023/12/31 02:28:36;;;;;;;2.15;1.92;;;;;;;5.43;100.00;100560.19;4968021;28;20207;-63
2023/12/31 02:31:08;;;;;;;8.45;1.17;;;;;;;5.42;100.00;100563.91;4972013;28;20294;-66
2023/12/31 02:33:38;;;;;;;2.08;0.95;;;;;;;5.45;100.00;100556.31;4965159;28;20286;-66
2023/12/31 02:36:09;;;;;;;4.57;2.00;;;;;;;5.48;100.00;100542.53;4968278;28;20218;-66
2023/12/31 02:38:39;;;;;;;1.60;1.23;;;;;;;5.47;100.00;100548.91;4963208;28;20198;-65
2023/12/31 02:41:11;;;;;;;3.13;1.20;;;;;;;5.55;100.00;100548.88;4966798;28;20191;-66
2023/12/31 02:43:41;;;;;;;3.28;2.47;;;;;;;5.36;100.00;100551.19;4968463;28;20575;-65
2023/12/31 02:46:12;;;;;;;1.40;0.95;;;;;;;5.28;100.00;100544.00;4964129;28;20227;-66
2023/12/31 02:48:43;;;;;;;3.05;1.48;;;;;;;5.25;100.00;100547.06;4966777;28;20583;-66
2023/12/31 02:51:13;;;;;;;1.92;1.60;;;;;;;5.37;100.00;100540.28;4963710;28;20203;-65
2023/12/31 02:53:43;;;;;;;4.38;1.67;;;;;;;5.24;100.00;100540.00;4965383;28;20731;-66
2023/12/31 02:56:14;;;;;;;2.35;1.42;;;;;;;5.25;100.00;100531.78;4966700;28;20230;-64
2023/12/31 02:58:46;;;;;;;1.45;0.90;;;;;;;5.25;100.00;100525.59;4968186;28;20208;-66
2023/12/31 03:01:16;;;;;;;1.60;1.50;;;;;;;5.43;100.00;100527.97;4962230;28;20199;-65
2023/12/31 03:03:48;;;;;;;2.45;1.55;;;;;;;5.40;100.00;100523.81;4965802;28;20204;-67
2023/12/31 03:06:18;;;;;;;3.05;2.15;;;;;;;5.29;100.00;100516.16;4963391;28;20669;-66
2023/12/31 03:08:49;;;;;;;2.05;1.52;;;;;;;5.29;100.00;100516.16;4980152;28;20239;-65
2023/12/31 03:11:21;;;;;;;2.42;1.45;;;;;;;5.20;100.00;100519.91;4974390;28;20195;-65
2023/12/31 03:13:52;;;;;;;2.28;1.33;;;;;;;5.25;100.00;100514.84;4974324;28;20651;-66
2023/12/31 03:16:24;;;;;;;7.22;2.13;;;;;;;5.31;100.00;100518.69;4959326;28;20311;-65
2023/12/31 03:18:55;;;;;;;2.53;1.58;;;;;;;5.23;100.00;100511.50;4969233;28;20620;-66
2023/12/31 03:21:25;;;;;;;2.05;1.38;;;;;;;5.15;100.00;100508.88;4976983;28;20219;-66
2023/12/31 03:23:55;;;;;;;1.88;1.08;;;;;;;5.16;100.00;100510.56;4969303;28;20220;-65
2023/12/31 03:26:28;;;;;;;1.15;0.85;;;;;;;5.14;100.00;100502.69;4966519;28;20230;-65
2023/12/31 03:28:58;;;;;;;1.30;0.90;;;;;;;5.13;100.00;100500.19;4962477;28;20550;-67
2023/12/31 03:31:28;;;;;;;1.10;0.88;;;;;;;5.15;100.00;100500.84;4973619;28;20285;-64
2023/12/31 03:34:00;;;;;;;2.22;1.23;;;;;;;5.18;100.00;100503.19;4975531;28;20203;-65
2023/12/31 03:36:31;;;;;;;1.13;0.90;;;;;;;5.06;100.00;100502.72;4974239;28;20223;-65
2023/12/31 03:39:01;;;;;;;1.20;0.90;;;;;;;5.21;100.00;100502.81;4974581;28;20209;-65
2023/12/31 03:41:33;;;;;;;6.32;1.30;;;;;;;5.18;100.00;100495.13;4975729;28;20195;-66
2023/12/31 03:44:03;;;;;;;1.60;1.10;;;;;;;4.99;100.00;100501.75;4971519;28;20571;-65
2023/12/31 03:46:34;;;;;;;2.10;1.40;;;;;;;5.20;100.00;100488.56;4973359;28;20211;-64
2023/12/31 03:49:04;;;;;;;2.28;1.70;;;;;;;5.04;100.00;100487.81;4969117;28;20200;-65
2023/12/31 03:51:35;;;;;;;1.65;1.40;;;;;;;4.99;100.00;100482.97;4974282;28;20287;-65
2023/12/31 03:54:07;;;;;;;2.22;1.00;;;;;;;5.03;100.00;100478.13;4968889;28;20204;-67
2023/12/31 03:56:39;;;;;;;3.00;1.52;;;;;;;5.01;100.00;100469.41;4964920;28;20227;-65
2023/12/31 03:59:10;;;;;;;1.67;0.95;;;;;;;5.12;100.00;100469.84;4963889;28;20199;-65
2023/12/31 04:01:47;;;;;;;1.83;1.70;;;;;;;5.21;100.00;100466.09;4974336;28;20286;-65
2023/12/31 04:04:16;;;;;;;1.70;1.33;;;;;;;5.17;100.00;100464.78;4971806;28;20632;-66
2023/12/31 04:06:47;;;;;;;3.15;2.17;;;;;;;5.16;100.00;100463.13;4957986;28;20262;-66
2023/12/31 04:09:17;;;;;;;2.75;1.35;;;;;;;5.23;100.00;100455.16;4965553;28;20196;-65
2023/12/31 04:11:50;;;;;;;1.65;1.00;;;;;;;5.08;100.00;100456.97;4963897;28;20298;-66
2023/12/31 04:14:21;;;;;;;4.10;2.67;;;;;;;5.14;100.00;100465.13;4970010;28;20580;-65
2023/12/31 04:16:51;;;;;;;1.40;0.75;;;;;;;5.13;100.00;100458.09;4966769;28;20214;-65
2023/12/31 04:19:21;;;;;;;3.58;2.42;;;;;;;5.20;100.00;100460.91;4970696;28;20196;-65
2023/12/31 04:21:51;;;;;;;2.28;1.50;;;;;;;5.21;100.00;100454.53;4970622;28;20230;-65
2023/12/31 04:24:21;;;;;;;4.22;1.48;;;;;;;5.12;100.00;100456.44;4972856;28;20621;-65
2023/12/31 04:26:53;;;;;;;4.18;1.42;;;;;;;5.01;100.00;100453.31;4965253;28;20283;-64
2023/12/31 04:29:24;;;;;;;5.07;1.88;;;;;;;4.94;100.00;100447.81;4966998;28;20210;-66
2023/12/31 04:31:54;;;;;;;2.83;1.92;;;;;;;4.94;100.00;100441.66;4971847;28;20616;-66
2023/12/31 04:34:25;;;;;;;3.40;2.55;;;;;;;5.00;100.00;100432.88;4968381;28;20204;-65
2023/12/31 04:36:56;;;;;;;2.22;1.58;;;;;;;5.01;100.00;100431.88;4970154;28;20196;-66
2023/12/31 04:39:27;;;;;;;4.20;1.50;;;;;;;4.99;100.00;100433.88;4958568;28;20223;-66
2023/12/31 04:42:00;;;;;;;2.20;1.63;;;;;;;5.02;100.00;100429.00;4972949;28;20568;-67
2023/12/31 04:44:30;;;;;;;2.40;1.65;;;;;;;4.98;100.00;100426.88;4972117;28;20200;-66
2023/12/31 04:47:00;;;;;;;2.40;1.70;;;;;;;5.08;100.00;100424.78;4958648;28;20207;-66
2023/12/31 04:49:31;;;;;;;2.33;1.50;;;;;;;5.32;100.00;100421.94;4967490;28;20191;-65
2023/12/31 04:52:01;;;;;;;2.80;2.50;;;;;;;5.52;100.00;100428.44;4970273;28;20206;-65
2023/12/31 04:54:31;;;;;;;1.80;1.30;;;;;;;5.57;100.00;100420.69;4960870;28;20235;-65
2023/12/31 04:57:02;;;;;;;2.85;1.40;;;;;;;5.51;100.00;100413.38;4962691;28;20628;-66
2023/12/31 04:59:33;;;;;;;2.22;2.03;;;;;;;5.71;100.00;100412.88;4962076;28;20673;-65
2023/12/31 05:02:04;;;;;;;2.95;2.25;;;;;;;5.62;100.00;100410.25;4972130;28;20207;-66
2023/12/31 05:04:34;;;;;;;3.05;1.00;;;;;;;5.74;100.00;100407.13;4961025;28;20247;-65
2023/12/31 05:07:08;;;;;;;2.85;1.80;;;;;;;5.73;100.00;100395.56;4958739;28;20204;-65
2023/12/31 05:09:38;;;;;;;1.70;1.33;;;;;;;5.68;100.00;100401.47;4972491;28;20199;-65
2023/12/31 05:12:11;;;;;;;1.65;0.93;;;;;;;5.75;100.00;100395.38;4970299;28;20291;-66
2023/12/31 05:14:41;;;;;;;2.17;0.98;;;;;;;5.68;100.00;100397.94;4969269;28;20285;-66
2023/12/31 05:17:12;;;;;;;2.03;1.70;;;;;;;5.88;100.00;100406.34;4971958;28;20199;-64
2023/12/31 05:19:45;;;;;;;3.03;1.48;;;;;;;5.83;100.00;100400.66;4972324;28;20287;-65
2023/12/31 05:22:15;;;;;;;2.15;1.92;;;;;;;5.76;100.00;100386.31;4970261;28;20290;-66
2023/12/31 05:24:45;;;;;;;1.48;0.80;;;;;;;5.83;100.00;100384.53;4967859;28;20543;-66
2023/12/31 05:27:19;;;;;;;11.30;1.70;;;;;;;5.97;100.00;100383.75;4968366;28;20608;-64
2023/12/31 05:29:49;;;;;;;16.50;1.27;;;;;;;5.95;100.00;100383.97;4965977;28;20204;-66
2023/12/31 05:32:20;;;;;;;1.90;1.42;;;;;;;5.96;100.00;100388.28;4966073;28;20215;-66
2023/12/31 05:34:50;;;;;;;1.08;0.93;;;;;;;5.94;100.00;100381.44;4967295;28;20239;-66
2023/12/31 05:37:21;;;;;;;2.63;2.35;;;;;;;5.87;100.00;100381.34;4970538;28;20201;-65
2023/12/31 05:39:51;;;;;;;1.35;0.82;;;;;;;5.98;100.00;100388.13;4971469;28;20258;-66
2023/12/31 05:42:23;;;;;;;2.88;1.20;;;;;;;6.01;100.00;100376.97;4969014;28;20253;-65
2023/12/31 05:44:55;;;;;;;4.28;1.45;;;;;;;6.04;100.00;100377.47;4970318;28;20258;-62
2023/12/31 05:47:25;;;;;;;2.80;2.25;;;;;;;5.83;100.00;100369.28;4971207;28;20218;-65
2023/12/31 05:50:16;;;;;;;6.55;4.70;;;;;;;6.01;100.00;100371.63;4949725;28;20578;-66
2023/12/31 05:52:46;;;;;;;6.32;2.70;;;;;;;5.92;100.00;100367.34;4967011;28;20233;-66
2023/12/31 05:55:16;;;;;;;2.22;1.48;;;;;;;5.88;100.00;100366.06;4966052;28;20250;-66
2023/12/31 05:57:50;;;;;;;4.25;1.10;;;;;;;5.80;100.00;100352.69;4962316;28;20207;-65
2023/12/31 06:00:21;;;;;;;2.50;1.73;;;;;;;5.69;100.00;100352.13;4970943;28;20580;-65
2023/12/31 06:02:54;;;;;;;3.85;1.13;;;;;;;5.90;100.00;100345.25;4965020;28;20286;-65
2023/12/31 06:05:24;;;;;;;1.77;1.25;;;;;;;5.83;100.00;100345.09;4971389;28;20224;-65
2023/12/31 06:07:55;;;;;;;3.50;1.67;;;;;;;5.66;100.00;100336.38;4966639;28;20199;-65
2023/12/31 06:10:27;;;;;;;2.35;2.15;;;;;;;5.73;100.00;100341.03;4973008;28;20207;-66
2023/12/31 06:12:59;;;;;;;1.50;0.85;;;;;;;5.80;100.00;100341.97;4971794;28;20199;-65
2023/12/31 06:15:31;;;;;;;1.60;1.10;;;;;;;5.78;100.00;100338.63;4969691;28;20315;-64
2023/12/31 06:18:58;;;;;;;2.15;1.90;;;;;;;5.75;100.00;100339.00;4966482;28;20538;-66
2023/12/31 06:21:29;;;;;;;1.20;0.90;;;;;;;5.81;100.00;100335.59;4961289;28;20202;-64
2023/12/31 06:24:00;;;;;;;2.85;1.55;;;;;;;5.83;100.00;100336.22;4971007;28;20199;-65
2023/12/31 06:26:31;;;;;;;1.50;1.35;;;;;;;5.68;100.00;100341.56;4966877;28;20258;-65
2023/12/31 06:29:05;;;;;;;9.70;1.73;;;;;;;5.69;100.00;100337.88;4956235;28;20294;-66
2023/12/31 06:31:35;;;;;;;10.30;2.95;;;;;;;5.66;100.00;100344.44;4984773;28;20238;-65
2023/12/31 06:34:05;;;;;;;1.30;0.70;;;;;;;5.72;100.00;100342.03;4964912;28;20595;-65
2023/12/31 06:36:36;;;;;;;2.65;1.45;;;;;;;5.77;100.00;100350.38;4966065;28;20239;-66
2023/12/31 06:39:07;;;;;;;1.65;1.23;;;;;;;5.85;100.00;100347.63;4969015;28;20200;-66
2023/12/31 06:41:38;;;;;;;2.17;1.70;;;;;;;5.79;100.00;100342.97;4973004;28;20195;-67
2023/12/31 06:44:10;;;;;;;2.28;1.42;;;;;;;5.77;100.00;100335.09;4965173;28;20202;-64
2023/12/31 06:46:42;;;;;;;2.08;1.15;;;;;;;5.80;100.00;100336.59;4964576;28;20596;-65
2023/12/31 06:49:13;;;;;;;1.80;1.20;;;;;;;5.84;100.00;100337.88;4972565;28;20563;-65
2023/12/31 06:51:44;;;;;;;5.00;2.92;;;;;;;5.82;100.00;100337.22;4974247;28;20749;-66
2023/12/31 06:54:15;;;;;;;2.35;1.52;;;;;;;5.86;100.00;100338.53;4969171;28;20298;-66
2023/12/31 06:56:45;;;;;;;1.95;1.75;;;;;;;5.81;100.00;100338.28;4966663;28;20211;-66
2023/12/31 06:59:18;;;;;;;3.92;1.90;;;;;;;5.91;100.00;100333.47;4967926;28;20192;-65
2023/12/31 07:01:48;;;;;;;1.40;1.27;;;;;;;5.89;100.00;100336.34;4975027;28;20206;-65
2023/12/31 07:04:18;;;;;;;1.90;1.25;;;;;;;5.84;100.00;100329.84;4971779;28;20289;-64
2023/12/31 07:06:48;;;;;;;2.42;1.88;;;;;;;5.93;100.00;100339.50;4971195;28;20215;-66
2023/12/31 07:09:19;;;;;;;2.13;0.80;;;;;;;5.97;100.00;100333.56;4976232;28;20204;-64
2023/12/31 07:11:49;;;;;;;1.45;1.25;;;;;;;6.00;100.00;100327.81;4972745;28;20218;-65
2023/12/31 07:14:23;;;;;;;6.15;2.28;;;;;;;5.96;100.00;100321.16;4968093;28;20206;-64
2023/12/31 07:16:53;;;;;;;1.90;0.90;;;;;;;5.93;100.00;100316.16;4967944;28;20245;-65
2023/12/31 07:19:23;;;;;;;2.88;1.60;;;;;;;5.92;100.00;100310.97;4966625;28;20199;-65
2023/12/31 07:21:54;;;;;;;1.30;1.05;;;;;;;5.91;100.00;100301.22;4966808;28;20238;-66
2023/12/31 07:24:24;;;;;;;3.35;2.45;;;;;;;5.93;100.00;100304.59;4959848;28;20196;-66
2023/12/31 07:26:56;;;;;;;2.25;1.65;;;;;;;6.01;100.00;100304.47;4959416;28;20228;-66
2023/12/31 07:29:29;;;;;;;1.38;1.27;;;;;;;6.06;100.00;100299.38;4964594;28;20196;-66
2023/12/31 07:32:00;;;;;;;1.58;1.00;;;;;;;6.06;100.00;100299.38;4967526;28;20215;-67
2023/12/31 07:34:33;;;;;;;1.50;1.00;;;;;;;6.05;100.00;100297.72;4964677;28;20200;-65
2023/12/31 07:37:03;;;;;;;4.22;1.33;;;;;;;6.09;100.00;100299.00;4970425;28;20577;-65
2023/12/31 07:39:33;;;;;;;1.33;1.15;;;;;;;6.09;100.00;100288.28;4972242;28;20219;-66
2023/12/31 07:42:05;;;;;;;5.50;2.10;;;;;;;6.25;100.00;100288.03;4972049;28;20265;-66
2023/12/31 07:44:38;;;;;;;1.98;1.35;;;;;;;6.20;100.00;100287.75;4967218;28;20206;-66
2023/12/31 07:47:09;;;;;;;2.50;1.30;;;;;;;6.32;100.00;100286.28;4982282;28;20195;-66
2023/12/31 07:49:40;;;;;;;2.58;1.90;;;;;;;6.26;100.00;100289.72;4990557;28;20282;-67
2023/12/31 07:52:12;;;;;;;1.67;1.30;;;;;;;6.38;100.00;100293.59;4969359;28;20705;-66
2023/12/31 07:54:42;;;;;;;2.08;1.42;;;;;;;6.43;100.00;100288.47;4974155;28;20206;-66
2023/12/31 07:57:13;;;;;;;3.80;1.80;;;;;;;6.32;100.00;100286.28;4970168;28;20590;-66
2023/12/31 07:59:46;;;;;;;3.50;1.55;;;;;;;6.31;100.00;100292.66;4972631;28;20286;-65
2023/12/31 08:02:16;;;;;;;1.83;1.08;;;;;;;6.34;100.00;100286.91;4969528;28;20199;-65
2023/12/31 08:04:47;;;;;;;2.85;1.48;;;;;;;6.36;100.00;100287.56;4968660;28;20204;-65
2023/12/31 08:07:18;;;;;;;2.13;1.00;;;;;;;6.52;100.00;100283.81;4967190;28;20192;-65
2023/12/31 08:09:49;;;;;;;2.08;1.20;;;;;;;6.38;100.00;100290.91;4960825;28;20200;-67
2023/12/31 08:12:19;;;;;;;2.00;1.13;;;;;;;6.47;100.00;100280.84;4967192;28;20239;-65
2023/12/31 08:14:51;;;;;;;1.38;1.25;;;;;;;6.29;100.00;100261.66;4974341;28;20205;-66
2023/12/31 08:17:24;;;;;;;0.98;0.75;;;;;;;6.39;100.00;100272.91;4969220;28;20610;-69
2023/12/31 08:19:54;;;;;;;5.88;1.77;;;;;;;6.49;100.00;100268.88;4965984;28;20196;-66
2023/12/31 08:22:25;;;;;;;4.50;1.85;;;;;;;6.55;100.00;100273.50;4963419;28;20247;-66
2023/12/31 08:24:55;;;;;;;1.42;1.20;;;;;;;6.60;100.00;100277.47;4960598;28;20226;-67
2023/12/31 08:27:28;;;;;;;1.13;1.02;;;;;;;6.72;100.00;100273.25;4969921;28;20206;-67
2023/12/31 08:29:59;;;;;;;6.72;4.50;;;;;;;6.70;100.00;100270.75;4972260;28;20212;-65
2023/12/31 08:32:30;;;;;;;4.35;2.40;;;;;;;6.92;100.00;100274.28;4966264;28;20275;-66
2023/12/31 08:35:02;;;;;;;3.95;2.03;;;;;;;6.89;99.88;100280.03;4968627;28;20220;-67
2023/12/31 08:37:33;;;;;;;3.05;2.25;;;;;;;7.11;99.55;100278.16;4970794;28;20196;-66
2023/12/31 08:40:04;;;;;;;1.45;1.33;;;;;;;7.09;97.31;100281.03;4973965;28;20231;-66
2023/12/31 08:42:34;;;;;;;2.17;1.52;;;;;;;7.09;97.85;100272.97;4965125;28;20670;-66
2023/12/31 08:45:10;;;;;;;2.90;1.50;;;;;;;7.08;97.68;100265.91;4967381;28;20223;-66
2023/12/31 08:47:41;;;;;;;1.20;0.90;;;;;;;7.08;97.39;100268.59;4987254;28;20196;-66
2023/12/31 08:50:12;;;;;;;1.40;0.90;;;;;;;7.06;97.32;100262.59;4967940;28;20214;-66
2023/12/31 08:52:44;;;;;;;1.40;1.00;;;;;;;7.15;97.51;100263.28;4964613;28;20214;-65
2023/12/31 08:55:16;;;;;;;2.90;1.00;;;;;;;7.31;96.95;100263.81;4964337;28;20287;-65
2023/12/31 08:57:49;;;;;;;1.10;1.00;;;;;;;7.26;96.31;100266.25;4967145;28;20244;-64
2023/12/31 09:00:21;;;;;;;1.10;1.00;;;;;;;7.37;96.88;100260.34;4969521;28;20203;-66
2023/12/31 09:02:51;;;;;;;1.60;0.68;;;;;;;7.43;95.08;100266.78;4973709;28;20282;-65
2023/12/31 09:05:22;;;;;;;1.13;0.95;;;;;;;7.43;94.31;100264.94;4983280;28;20715;-66
2023/12/31 09:07:53;;;;;;;2.15;1.50;;;;;;;7.47;94.73;100257.28;4962004;28;20275;-65
2023/12/31 09:10:23;;;;;;;2.05;1.48;;;;;;;7.76;93.96;100250.81;4967948;28;20202;-65
2023/12/31 09:12:53;;;;;;;1.95;1.50;;;;;;;7.63;92.22;100256.16;4966459;28;20263;-66
2023/12/31 09:15:26;;;;;;;1.38;1.02;;;;;;;7.63;92.89;100251.59;4968821;28;20267;-67
2023/12/31 09:17:57;;;;;;;3.00;1.95;;;;;;;7.77;91.74;100256.03;4970028;28;20215;-65
2023/12/31 09:20:28;;;;;;;1.48;1.00;;;;;;;7.76;92.44;100256.22;4963799;28;20196;-67
2023/12/31 09:22:59;;;;;;;1.55;1.25;;;;;;;7.53;92.85;100251.13;4971852;28;20262;-66
2023/12/31 09:25:29;;;;;;;1.85;1.40;;;;;;;7.57;93.28;100243.47;4970916;28;20230;-66
2023/12/31 09:28:00;;;;;;;1.70;1.40;;;;;;;7.71;92.84;100242.50;4963513;28;20209;-66
2023/12/31 09:30:32;;;;;;;6.22;2.70;;;;;;;7.63;91.80;100246.22;4963909;28;20196;-66
2023/12/31 09:33:05;;;;;;;1.13;1.02;;;;;;;7.57;92.12;100241.63;4972580;28;20221;-67
2023/12/31 09:35:36;;;;;;;5.82;2.15;;;;;;;7.57;92.78;100236.22;4961813;28;20225;-66
2023/12/31 09:38:08;;;;;;;1.80;1.60;;;;;;;7.51;92.44;100236.19;4968031;28;20201;-66
2023/12/31 09:40:39;;;;;;;1.50;1.30;;;;;;;7.61;92.05;100233.97;4968746;28;20179;-66
2023/12/31 09:43:13;;;;;;;2.88;1.65;;;;;;;7.85;91.50;100230.78;4964662;28;20198;-65
2023/12/31 09:45:49;;;;;;;1.98;1.45;;;;;;;7.92;91.89;100237.03;4972831;28;20654;-66
2023/12/31 09:48:24;;;;;;;3.78;2.42;;;;;;;7.81;91.02;100226.81;4964472;28;20214;-65
2023/12/31 09:51:02;;;;;;;3.03;1.58;;;;;;;7.70;91.14;100211.22;4964305;28;20551;-65
2023/12/31 09:53:34;;;;;;;2.42;1.35;;;;;;;7.81;91.47;100210.66;4968596;28;20746;-65
2023/12/31 09:56:06;;;;;;;2.40;1.88;;;;;;;7.78;90.84;100205.69;4970110;28;20230;-65
2023/12/31 09:58:38;;;;;;;4.60;2.53;;;;;;;7.86;91.09;100197.41;4966546;28;20809;-66
2023/12/31 10:01:09;;;;;;;1.73;1.55;;;;;;;7.86;90.67;100195.56;4967140;28;20294;-66
2023/12/31 10:03:41;;;;;;;10.13;2.13;;;;;;;8.02;90.37;100191.69;4971172;28;20544;-65
2023/12/31 10:06:12;;;;;;;1.55;1.23;;;;;;;7.93;90.21;100186.69;4969594;28;20263;-65
2023/12/31 10:08:43;;;;;;;1.60;1.50;;;;;;;7.88;90.12;100178.38;4972825;28;20203;-66
2023/12/31 10:11:15;;;;;;;1.65;0.80;;;;;;;7.92;90.13;100183.16;4968848;28;20200;-66
2023/12/31 10:13:45;;;;;;;2.33;1.10;;;;;;;7.90;90.16;100160.13;4970546;28;20216;-67
2023/12/31 10:16:18;;;;;;;1.73;1.05;;;;;;;7.88;89.84;100157.66;4980745;28;20220;-67
2023/12/31 10:18:49;;;;;;;2.53;2.33;;;;;;;8.02;90.05;100159.34;4964470;28;20196;-66
2023/12/31 10:21:19;;;;;;;1.55;1.05;;;;;;;8.07;89.73;100151.50;4973130;28;20532;-66
2023/12/31 10:23:51;;;;;;;2.05;1.00;;;;;;;8.03;89.50;100142.16;4965600;28;20187;-67
2023/12/31 10:26:23;;;;;;;2.85;2.38;;;;;;;8.15;89.21;100142.38;4971343;28;20220;-66
2023/12/31 10:28:55;;;;;;;2.22;1.20;;;;;;;8.06;89.03;100122.88;4964520;28;20570;-65
2023/12/31 10:31:27;;;;;;;1.75;1.60;;;;;;;8.12;89.08;100116.69;4969537;28;20195;-66
2023/12/31 10:34:13;;;;;;;3.30;2.00;;;;;;;8.24;89.10;100103.41;4969227;28;20306;-66
2023/12/31 10:36:46;;;;;;;2.00;1.80;;;;;;;8.33;88.70;100101.41;4968135;28;20223;-67
2023/12/31 10:39:28;;;;;;;2.72;1.80;;;;;;;8.21;89.02;100096.56;4985481;28;20196;-66
2023/12/31 10:42:03;;;;;;;1.88;0.75;;;;;;;8.11;89.25;100092.63;4967574;28;20723;-66
2023/12/31 10:44:35;;;;;;;2.97;1.55;;;;;;;8.16;89.24;100090.97;4966221;28;20191;-65
2023/12/31 10:47:09;;;;;;;6.30;1.65;;;;;;;8.23;88.21;100075.63;4967020;28;20199;-67
2023/12/31 10:49:47;;;;;;;4.80;2.00;;;;;;;8.18;88.80;100083.50;4970875;28;20211;-65
2023/12/31 10:52:19;;;;;;;1.20;0.90;;;;;;;8.21;88.39;100082.25;4965880;28;20227;-66
2023/12/31 10:54:51;;;;;;;3.00;1.63;;;;;;;8.19;89.30;100063.59;4979324;28;20220;-66
2023/12/31 10:57:25;;;;;;;1.98;1.60;;;;;;;8.33;88.13;100052.88;4970571;28;20200;-65
2023/12/31 10:59:57;;;;;;;1.70;1.10;;;;;;;8.41;87.89;100055.34;4966768;28;20326;-66
2023/12/31 11:02:31;;;;;;;2.58;1.50;;;;;;;8.42;87.30;100057.00;4964918;28;20196;-66
2023/12/31 11:05:03;;;;;;;3.75;1.60;;;;;;;8.37;87.03;100044.16;4958476;28;20234;-65
2023/12/31 11:07:35;;;;;;;1.20;1.10;;;;;;;8.44;87.82;100041.44;4967314;28;20206;-66
2023/12/31 11:10:09;;;;;;;2.60;1.33;;;;;;;8.49;87.44;100041.63;4962704;28;20195;-65
2023/12/31 11:12:40;;;;;;;2.88;1.35;;;;;;;8.45;86.58;100043.09;4969272;28;20199;-67
2023/12/31 11:15:15;;;;;;;2.35;1.48;;;;;;;8.43;87.31;100048.69;4962057;28;20303;-63
2023/12/31 11:18:10;;;;;;;5.80;1.55;;;;;;;8.39;86.76;100035.84;4961605;28;20289;-65
2023/12/31 11:21:10;;;;;;;2.28;1.83;;;;;;;8.43;86.83;100018.19;4969528;28;20283;-66
2023/12/31 11:23:49;;;;;;;3.00;1.75;;;;;;;8.42;87.05;100009.31;4970632;28;20282;-67
2023/12/31 11:26:20;;;;;;;2.72;1.20;;;;;;;8.57;86.88;100009.06;4967350;28;20211;-67
2023/12/31 11:28:51;;;;;;;1.73;1.23;;;;;;;8.46;86.41;100007.84;4981704;28;20203;-66
2023/12/31 11:31:23;;;;;;;1.65;0.85;;;;;;;8.43;87.68;100015.50;4967544;28;20215;-66
2023/12/31 11:33:54;;;;;;;2.95;1.02;;;;;;;8.69;86.47;100031.66;4969303;28;20251;-66
2023/12/31 11:36:26;;;;;;;1.88;1.35;;;;;;;8.54;86.33;100022.97;4971786;28;20218;-65
2023/12/31 11:39:00;;;;;;;3.08;1.98;;;;;;;8.60;86.98;100016.75;4970868;28;20199;-65
2023/12/31 11:41:34;;;;;;;3.63;2.53;;;;;;;8.72;85.78;100020.44;4968910;28;20215;-65
2023/12/31 11:44:04;;;;;;;1.83;1.02;;;;;;;8.81;86.37;100019.16;4974203;28;20207;-67
2023/12/31 11:46:38;;;;;;;3.27;1.97;;;;;;;8.75;84.89;100030.81;4965717;28;20211;-65
2023/12/31 11:49:12;;;;;;;2.28;1.35;;;;;;;8.78;84.74;100025.00;4970789;28;20443;-65